sensor_id;sensor_type;location;lat;lon;timestamp;P1;durP1;ratioP1;P2;durP2;ratioP2
18090;SDS011;9172;49.948;9.208;2022-08-19T00:00:10;16.07;;;10.50;;
18090;SDS011;9172;49.948;9.208;2022-08-19T00:02:42;13.70;;;9.60;;
18090;SDS011;9172;49.948;9.208;2022-08-19T00:05:12;16.73;;;10.17;;
18090;SDS011;9172;49.948;9.208;2022-08-19T00:07:42;15.13;;;10.40;;
18090;SDS011;9172;49.948;9.208;2022-08-19T00:10:12;16.13;;;10.43;;
18090;SDS011;9172;49.948;9.208;2022-08-19T00:12:42;20.00;;;12.20;;
18090;SDS011;9172;49.948;9.208;2022-08-19T00:15:14;17.20;;;10.63;;
18090;SDS011;9172;49.948;9.208;2022-08-19T00:17:53;23.33;;;11.50;;
18090;SDS011;9172;49.948;9.208;2022-08-19T00:20:22;18.27;;;10.73;;
18090;SDS011;9172;49.948;9.208;2022-08-19T00:22:52;16.47;;;10.90;;
18090;SDS011;9172;49.948;9.208;2022-08-19T00:25:21;18.70;;;10.90;;
18090;SDS011;9172;49.948;9.208;2022-08-19T00:27:50;16.47;;;10.53;;
18090;SDS011;9172;49.948;9.208;2022-08-19T00:30:19;14.70;;;9.97;;
18090;SDS011;9172;49.948;9.208;2022-08-19T00:32:47;16.53;;;10.93;;
18090;SDS011;9172;49.948;9.208;2022-08-19T00:35:16;17.73;;;10.47;;
18090;SDS011;9172;49.948;9.208;2022-08-19T00:37:46;19.27;;;11.37;;
18090;SDS011;9172;49.948;9.208;2022-08-19T00:40:15;15.57;;;11.07;;
18090;SDS011;9172;49.948;9.208;2022-08-19T00:42:45;20.40;;;11.30;;
18090;SDS011;9172;49.948;9.208;2022-08-19T00:45:15;20.47;;;11.17;;
18090;SDS011;9172;49.948;9.208;2022-08-19T00:47:46;18.83;;;10.83;;
18090;SDS011;9172;49.948;9.208;2022-08-19T00:50:16;18.43;;;10.83;;
18090;SDS011;9172;49.948;9.208;2022-08-19T00:52:49;18.17;;;9.83;;
18090;SDS011;9172;49.948;9.208;2022-08-19T00:55:19;15.20;;;10.30;;
18090;SDS011;9172;49.948;9.208;2022-08-19T00:57:51;19.37;;;10.20;;
18090;SDS011;9172;49.948;9.208;2022-08-19T01:00:23;14.87;;;10.17;;
18090;SDS011;9172;49.948;9.208;2022-08-19T01:02:53;17.40;;;10.73;;
18090;SDS011;9172;49.948;9.208;2022-08-19T01:05:24;15.43;;;10.70;;
18090;SDS011;9172;49.948;9.208;2022-08-19T01:07:54;15.20;;;10.37;;
18090;SDS011;9172;49.948;9.208;2022-08-19T01:10:26;17.13;;;10.67;;
18090;SDS011;9172;49.948;9.208;2022-08-19T01:12:58;16.57;;;10.27;;
18090;SDS011;9172;49.948;9.208;2022-08-19T01:15:31;16.70;;;10.50;;
18090;SDS011;9172;49.948;9.208;2022-08-19T01:18:02;15.13;;;10.50;;
18090;SDS011;9172;49.948;9.208;2022-08-19T01:20:33;19.50;;;12.50;;
18090;SDS011;9172;49.948;9.208;2022-08-19T01:23:03;18.13;;;11.67;;
18090;SDS011;9172;49.948;9.208;2022-08-19T01:25:33;17.73;;;11.37;;
18090;SDS011;9172;49.948;9.208;2022-08-19T01:28:03;15.93;;;10.90;;
18090;SDS011;9172;49.948;9.208;2022-08-19T01:30:33;16.57;;;10.83;;
18090;SDS011;9172;49.948;9.208;2022-08-19T01:33:02;17.27;;;11.00;;
18090;SDS011;9172;49.948;9.208;2022-08-19T01:35:32;19.13;;;12.67;;
18090;SDS011;9172;49.948;9.208;2022-08-19T01:38:03;17.30;;;11.40;;
18090;SDS011;9172;49.948;9.208;2022-08-19T01:40:36;16.57;;;11.00;;
18090;SDS011;9172;49.948;9.208;2022-08-19T01:43:09;17.37;;;11.03;;
18090;SDS011;9172;49.948;9.208;2022-08-19T01:45:37;16.60;;;10.30;;
18090;SDS011;9172;49.948;9.208;2022-08-19T01:48:07;17.67;;;10.93;;
18090;SDS011;9172;49.948;9.208;2022-08-19T01:50:36;16.37;;;10.80;;
18090;SDS011;9172;49.948;9.208;2022-08-19T01:53:07;17.67;;;11.73;;
18090;SDS011;9172;49.948;9.208;2022-08-19T01:55:40;18.00;;;10.87;;
18090;SDS011;9172;49.948;9.208;2022-08-19T01:58:12;21.90;;;11.07;;
18090;SDS011;9172;49.948;9.208;2022-08-19T02:00:43;16.40;;;10.83;;
18090;SDS011;9172;49.948;9.208;2022-08-19T02:03:12;17.53;;;12.00;;
18090;SDS011;9172;49.948;9.208;2022-08-19T02:05:43;15.37;;;10.37;;
18090;SDS011;9172;49.948;9.208;2022-08-19T02:08:12;17.37;;;10.87;;
18090;SDS011;9172;49.948;9.208;2022-08-19T02:10:42;16.17;;;11.00;;
18090;SDS011;9172;49.948;9.208;2022-08-19T02:13:11;14.83;;;10.53;;
18090;SDS011;9172;49.948;9.208;2022-08-19T02:15:40;18.37;;;12.07;;
18090;SDS011;9172;49.948;9.208;2022-08-19T02:18:10;18.73;;;11.73;;
18090;SDS011;9172;49.948;9.208;2022-08-19T02:20:40;19.40;;;11.87;;
18090;SDS011;9172;49.948;9.208;2022-08-19T02:23:10;20.33;;;11.70;;
18090;SDS011;9172;49.948;9.208;2022-08-19T02:25:40;18.33;;;11.90;;
18090;SDS011;9172;49.948;9.208;2022-08-19T02:28:11;19.27;;;12.53;;
18090;SDS011;9172;49.948;9.208;2022-08-19T02:30:40;17.40;;;11.20;;
18090;SDS011;9172;49.948;9.208;2022-08-19T02:33:10;15.80;;;10.43;;
18090;SDS011;9172;49.948;9.208;2022-08-19T02:35:41;16.67;;;11.00;;
18090;SDS011;9172;49.948;9.208;2022-08-19T02:38:10;20.37;;;11.60;;
18090;SDS011;9172;49.948;9.208;2022-08-19T02:41:10;20.30;;;11.57;;
18090;SDS011;9172;49.948;9.208;2022-08-19T02:43:40;17.30;;;12.17;;
18090;SDS011;9172;49.948;9.208;2022-08-19T02:46:13;16.63;;;10.90;;
18090;SDS011;9172;49.948;9.208;2022-08-19T02:48:46;13.77;;;10.20;;
18090;SDS011;9172;49.948;9.208;2022-08-19T02:51:16;18.27;;;11.07;;
18090;SDS011;9172;49.948;9.208;2022-08-19T02:53:46;18.43;;;11.13;;
18090;SDS011;9172;49.948;9.208;2022-08-19T02:56:16;14.80;;;10.00;;
18090;SDS011;9172;49.948;9.208;2022-08-19T02:58:46;16.33;;;10.63;;
18090;SDS011;9172;49.948;9.208;2022-08-19T03:01:19;17.93;;;10.87;;
18090;SDS011;9172;49.948;9.208;2022-08-19T03:03:49;18.23;;;10.33;;
18090;SDS011;9172;49.948;9.208;2022-08-19T03:06:18;18.23;;;11.13;;
18090;SDS011;9172;49.948;9.208;2022-08-19T03:08:48;17.97;;;10.77;;
18090;SDS011;9172;49.948;9.208;2022-08-19T03:11:18;17.77;;;11.43;;
18090;SDS011;9172;49.948;9.208;2022-08-19T03:13:48;16.00;;;10.93;;
18090;SDS011;9172;49.948;9.208;2022-08-19T03:16:17;16.27;;;10.97;;
18090;SDS011;9172;49.948;9.208;2022-08-19T03:18:47;17.80;;;12.07;;
18090;SDS011;9172;49.948;9.208;2022-08-19T03:21:16;17.60;;;11.87;;
18090;SDS011;9172;49.948;9.208;2022-08-19T03:23:48;16.47;;;10.63;;
18090;SDS011;9172;49.948;9.208;2022-08-19T03:26:17;17.63;;;11.07;;
18090;SDS011;9172;49.948;9.208;2022-08-19T03:28:45;15.43;;;11.07;;
18090;SDS011;9172;49.948;9.208;2022-08-19T03:31:17;16.47;;;10.73;;
18090;SDS011;9172;49.948;9.208;2022-08-19T03:33:47;15.30;;;10.17;;
18090;SDS011;9172;49.948;9.208;2022-08-19T03:36:17;15.93;;;10.90;;
18090;SDS011;9172;49.948;9.208;2022-08-19T03:38:49;17.77;;;10.97;;
18090;SDS011;9172;49.948;9.208;2022-08-19T03:41:21;15.63;;;10.57;;
18090;SDS011;9172;49.948;9.208;2022-08-19T03:43:51;14.90;;;10.30;;
18090;SDS011;9172;49.948;9.208;2022-08-19T03:46:21;15.73;;;10.33;;
18090;SDS011;9172;49.948;9.208;2022-08-19T03:48:52;16.90;;;11.23;;
18090;SDS011;9172;49.948;9.208;2022-08-19T03:51:26;18.47;;;11.77;;
18090;SDS011;9172;49.948;9.208;2022-08-19T03:53:55;18.57;;;12.17;;
18090;SDS011;9172;49.948;9.208;2022-08-19T03:56:25;23.63;;;13.93;;
18090;SDS011;9172;49.948;9.208;2022-08-19T03:58:54;16.60;;;11.20;;
18090;SDS011;9172;49.948;9.208;2022-08-19T04:01:24;18.23;;;12.37;;
18090;SDS011;9172;49.948;9.208;2022-08-19T04:03:56;21.83;;;12.70;;
18090;SDS011;9172;49.948;9.208;2022-08-19T04:06:27;21.60;;;13.10;;
18090;SDS011;9172;49.948;9.208;2022-08-19T04:08:58;20.40;;;13.27;;
18090;SDS011;9172;49.948;9.208;2022-08-19T04:11:30;18.83;;;11.47;;
18090;SDS011;9172;49.948;9.208;2022-08-19T04:14:01;18.77;;;12.07;;
18090;SDS011;9172;49.948;9.208;2022-08-19T04:16:30;16.93;;;11.37;;
18090;SDS011;9172;49.948;9.208;2022-08-19T04:19:00;21.60;;;12.93;;
18090;SDS011;9172;49.948;9.208;2022-08-19T04:21:30;17.50;;;11.17;;
18090;SDS011;9172;49.948;9.208;2022-08-19T04:24:00;14.67;;;10.47;;
18090;SDS011;9172;49.948;9.208;2022-08-19T04:26:30;17.63;;;11.20;;
18090;SDS011;9172;49.948;9.208;2022-08-19T04:29:00;17.87;;;10.97;;
18090;SDS011;9172;49.948;9.208;2022-08-19T04:31:31;20.50;;;11.93;;
18090;SDS011;9172;49.948;9.208;2022-08-19T04:34:02;20.03;;;11.83;;
18090;SDS011;9172;49.948;9.208;2022-08-19T04:36:34;19.97;;;11.83;;
18090;SDS011;9172;49.948;9.208;2022-08-19T04:39:06;17.27;;;11.70;;
18090;SDS011;9172;49.948;9.208;2022-08-19T04:41:37;17.30;;;11.57;;
18090;SDS011;9172;49.948;9.208;2022-08-19T04:44:24;19.07;;;12.63;;
18090;SDS011;9172;49.948;9.208;2022-08-19T04:46:56;22.63;;;13.93;;
18090;SDS011;9172;49.948;9.208;2022-08-19T04:49:24;19.90;;;12.87;;
18090;SDS011;9172;49.948;9.208;2022-08-19T04:51:53;17.80;;;11.83;;
18090;SDS011;9172;49.948;9.208;2022-08-19T04:54:23;18.73;;;11.00;;
18090;SDS011;9172;49.948;9.208;2022-08-19T04:56:54;16.60;;;10.80;;
18090;SDS011;9172;49.948;9.208;2022-08-19T04:59:22;16.67;;;10.87;;
18090;SDS011;9172;49.948;9.208;2022-08-19T05:01:51;17.43;;;12.07;;
18090;SDS011;9172;49.948;9.208;2022-08-19T05:04:20;20.60;;;12.43;;
18090;SDS011;9172;49.948;9.208;2022-08-19T05:06:49;25.97;;;12.97;;
18090;SDS011;9172;49.948;9.208;2022-08-19T05:09:20;20.93;;;12.77;;
18090;SDS011;9172;49.948;9.208;2022-08-19T05:11:48;23.40;;;13.27;;
18090;SDS011;9172;49.948;9.208;2022-08-19T05:14:20;22.87;;;13.60;;
18090;SDS011;9172;49.948;9.208;2022-08-19T05:16:49;23.50;;;14.07;;
18090;SDS011;9172;49.948;9.208;2022-08-19T05:19:18;19.07;;;12.63;;
18090;SDS011;9172;49.948;9.208;2022-08-19T05:22:06;22.30;;;11.93;;
18090;SDS011;9172;49.948;9.208;2022-08-19T05:24:54;19.57;;;12.30;;
18090;SDS011;9172;49.948;9.208;2022-08-19T05:27:23;20.73;;;11.77;;
18090;SDS011;9172;49.948;9.208;2022-08-19T05:29:52;18.93;;;11.83;;
18090;SDS011;9172;49.948;9.208;2022-08-19T05:32:21;18.23;;;11.97;;
18090;SDS011;9172;49.948;9.208;2022-08-19T05:34:50;20.00;;;12.17;;
18090;SDS011;9172;49.948;9.208;2022-08-19T05:37:18;18.20;;;11.93;;
18090;SDS011;9172;49.948;9.208;2022-08-19T05:39:48;16.87;;;10.83;;
18090;SDS011;9172;49.948;9.208;2022-08-19T05:42:17;16.63;;;10.83;;
18090;SDS011;9172;49.948;9.208;2022-08-19T05:44:48;21.77;;;13.30;;
18090;SDS011;9172;49.948;9.208;2022-08-19T05:47:18;17.50;;;11.13;;
18090;SDS011;9172;49.948;9.208;2022-08-19T05:49:47;18.90;;;10.07;;
18090;SDS011;9172;49.948;9.208;2022-08-19T05:52:16;15.97;;;10.37;;
18090;SDS011;9172;49.948;9.208;2022-08-19T05:54:46;19.47;;;11.97;;
18090;SDS011;9172;49.948;9.208;2022-08-19T05:57:17;21.10;;;11.50;;
18090;SDS011;9172;49.948;9.208;2022-08-19T05:59:46;15.40;;;10.17;;
18090;SDS011;9172;49.948;9.208;2022-08-19T06:02:17;15.83;;;10.87;;
18090;SDS011;9172;49.948;9.208;2022-08-19T06:04:45;19.43;;;11.73;;
18090;SDS011;9172;49.948;9.208;2022-08-19T06:07:15;19.50;;;11.00;;
18090;SDS011;9172;49.948;9.208;2022-08-19T06:09:45;18.70;;;11.20;;
18090;SDS011;9172;49.948;9.208;2022-08-19T06:12:14;20.50;;;11.30;;
18090;SDS011;9172;49.948;9.208;2022-08-19T06:14:44;20.90;;;12.40;;
18090;SDS011;9172;49.948;9.208;2022-08-19T06:17:13;17.87;;;11.13;;
18090;SDS011;9172;49.948;9.208;2022-08-19T06:19:43;18.13;;;11.27;;
18090;SDS011;9172;49.948;9.208;2022-08-19T06:22:13;20.37;;;10.63;;
18090;SDS011;9172;49.948;9.208;2022-08-19T06:24:43;18.23;;;11.93;;
18090;SDS011;9172;49.948;9.208;2022-08-19T06:27:12;19.33;;;10.80;;
18090;SDS011;9172;49.948;9.208;2022-08-19T06:29:43;19.30;;;11.00;;
18090;SDS011;9172;49.948;9.208;2022-08-19T06:32:13;18.37;;;11.33;;
18090;SDS011;9172;49.948;9.208;2022-08-19T06:34:43;20.47;;;11.70;;
18090;SDS011;9172;49.948;9.208;2022-08-19T06:37:12;18.87;;;11.40;;
18090;SDS011;9172;49.948;9.208;2022-08-19T06:39:42;19.90;;;10.77;;
18090;SDS011;9172;49.948;9.208;2022-08-19T06:42:11;19.63;;;11.33;;
18090;SDS011;9172;49.948;9.208;2022-08-19T06:44:44;15.77;;;10.00;;
18090;SDS011;9172;49.948;9.208;2022-08-19T06:47:16;15.87;;;10.00;;
18090;SDS011;9172;49.948;9.208;2022-08-19T06:49:46;14.37;;;9.93;;
18090;SDS011;9172;49.948;9.208;2022-08-19T06:52:15;14.80;;;9.33;;
18090;SDS011;9172;49.948;9.208;2022-08-19T06:54:46;17.77;;;10.13;;
18090;SDS011;9172;49.948;9.208;2022-08-19T06:57:14;18.27;;;10.30;;
18090;SDS011;9172;49.948;9.208;2022-08-19T06:59:43;19.53;;;10.87;;
18090;SDS011;9172;49.948;9.208;2022-08-19T07:02:12;16.10;;;9.97;;
18090;SDS011;9172;49.948;9.208;2022-08-19T07:04:41;15.67;;;9.50;;
18090;SDS011;9172;49.948;9.208;2022-08-19T07:07:11;18.73;;;9.30;;
18090;SDS011;9172;49.948;9.208;2022-08-19T07:09:42;15.53;;;9.57;;
18090;SDS011;9172;49.948;9.208;2022-08-19T07:12:12;16.53;;;9.40;;
18090;SDS011;9172;49.948;9.208;2022-08-19T07:14:41;15.70;;;10.03;;
18090;SDS011;9172;49.948;9.208;2022-08-19T07:17:12;16.23;;;8.97;;
18090;SDS011;9172;49.948;9.208;2022-08-19T07:19:42;19.87;;;9.97;;
18090;SDS011;9172;49.948;9.208;2022-08-19T07:22:10;15.37;;;9.97;;
18090;SDS011;9172;49.948;9.208;2022-08-19T07:24:40;14.03;;;9.03;;
18090;SDS011;9172;49.948;9.208;2022-08-19T07:27:09;14.23;;;8.83;;
18090;SDS011;9172;49.948;9.208;2022-08-19T07:29:40;16.57;;;8.90;;
18090;SDS011;9172;49.948;9.208;2022-08-19T07:32:09;17.60;;;10.37;;
18090;SDS011;9172;49.948;9.208;2022-08-19T07:34:38;17.97;;;10.03;;
18090;SDS011;9172;49.948;9.208;2022-08-19T07:37:06;17.23;;;9.37;;
18090;SDS011;9172;49.948;9.208;2022-08-19T07:39:36;15.10;;;9.70;;
18090;SDS011;9172;49.948;9.208;2022-08-19T07:42:07;19.67;;;9.70;;
18090;SDS011;9172;49.948;9.208;2022-08-19T07:44:36;14.47;;;9.13;;
18090;SDS011;9172;49.948;9.208;2022-08-19T07:47:05;13.03;;;8.77;;
18090;SDS011;9172;49.948;9.208;2022-08-19T07:49:34;16.00;;;10.33;;
18090;SDS011;9172;49.948;9.208;2022-08-19T07:52:04;19.80;;;10.27;;
18090;SDS011;9172;49.948;9.208;2022-08-19T07:54:35;13.83;;;8.83;;
18090;SDS011;9172;49.948;9.208;2022-08-19T07:57:05;15.53;;;8.90;;
18090;SDS011;9172;49.948;9.208;2022-08-19T07:59:34;13.67;;;8.87;;
18090;SDS011;9172;49.948;9.208;2022-08-19T08:02:04;19.10;;;10.63;;
18090;SDS011;9172;49.948;9.208;2022-08-19T08:04:33;15.87;;;9.90;;
18090;SDS011;9172;49.948;9.208;2022-08-19T08:07:20;15.30;;;10.23;;
18090;SDS011;9172;49.948;9.208;2022-08-19T08:10:07;16.87;;;9.17;;
18090;SDS011;9172;49.948;9.208;2022-08-19T08:12:37;19.70;;;9.33;;
18090;SDS011;9172;49.948;9.208;2022-08-19T08:15:09;16.03;;;9.07;;
18090;SDS011;9172;49.948;9.208;2022-08-19T08:17:41;14.00;;;8.37;;
18090;SDS011;9172;49.948;9.208;2022-08-19T08:20:14;12.40;;;7.83;;
18090;SDS011;9172;49.948;9.208;2022-08-19T08:22:44;15.77;;;9.60;;
18090;SDS011;9172;49.948;9.208;2022-08-19T08:25:31;15.17;;;8.87;;
18090;SDS011;9172;49.948;9.208;2022-08-19T08:28:02;14.00;;;8.17;;
18090;SDS011;9172;49.948;9.208;2022-08-19T08:30:31;16.63;;;9.57;;
18090;SDS011;9172;49.948;9.208;2022-08-19T08:33:02;22.27;;;10.57;;
18090;SDS011;9172;49.948;9.208;2022-08-19T08:35:31;15.87;;;9.00;;
18090;SDS011;9172;49.948;9.208;2022-08-19T08:38:01;12.63;;;7.67;;
18090;SDS011;9172;49.948;9.208;2022-08-19T08:40:33;13.17;;;7.47;;
18090;SDS011;9172;49.948;9.208;2022-08-19T08:43:06;17.47;;;7.60;;
18090;SDS011;9172;49.948;9.208;2022-08-19T08:45:38;15.30;;;7.47;;
18090;SDS011;9172;49.948;9.208;2022-08-19T08:48:10;12.07;;;7.63;;
18090;SDS011;9172;49.948;9.208;2022-08-19T08:50:41;14.97;;;8.10;;
18090;SDS011;9172;49.948;9.208;2022-08-19T08:53:17;13.23;;;7.70;;
18090;SDS011;9172;49.948;9.208;2022-08-19T08:55:45;12.10;;;7.27;;
18090;SDS011;9172;49.948;9.208;2022-08-19T08:58:16;13.10;;;7.27;;
18090;SDS011;9172;49.948;9.208;2022-08-19T09:00:47;11.73;;;7.03;;
18090;SDS011;9172;49.948;9.208;2022-08-19T09:03:18;14.03;;;7.73;;
18090;SDS011;9172;49.948;9.208;2022-08-19T09:05:50;11.30;;;6.70;;
18090;SDS011;9172;49.948;9.208;2022-08-19T09:08:24;9.53;;;7.10;;
18090;SDS011;9172;49.948;9.208;2022-08-19T09:10:56;12.80;;;6.73;;
18090;SDS011;9172;49.948;9.208;2022-08-19T09:13:26;16.07;;;8.10;;
18090;SDS011;9172;49.948;9.208;2022-08-19T09:15:58;8.87;;;6.40;;
18090;SDS011;9172;49.948;9.208;2022-08-19T09:18:38;10.67;;;5.70;;
18090;SDS011;9172;49.948;9.208;2022-08-19T09:21:09;10.70;;;5.13;;
18090;SDS011;9172;49.948;9.208;2022-08-19T09:23:39;13.03;;;5.90;;
18090;SDS011;9172;49.948;9.208;2022-08-19T09:26:10;7.70;;;5.00;;
18090;SDS011;9172;49.948;9.208;2022-08-19T09:28:41;8.97;;;4.87;;
18090;SDS011;9172;49.948;9.208;2022-08-19T09:31:13;11.97;;;5.23;;
18090;SDS011;9172;49.948;9.208;2022-08-19T09:33:44;7.43;;;5.30;;
18090;SDS011;9172;49.948;9.208;2022-08-19T09:36:15;11.77;;;5.70;;
18090;SDS011;9172;49.948;9.208;2022-08-19T09:38:47;7.20;;;4.83;;
18090;SDS011;9172;49.948;9.208;2022-08-19T09:41:16;6.70;;;4.50;;
18090;SDS011;9172;49.948;9.208;2022-08-19T09:43:47;9.57;;;4.87;;
18090;SDS011;9172;49.948;9.208;2022-08-19T09:46:19;8.87;;;4.93;;
18090;SDS011;9172;49.948;9.208;2022-08-19T09:48:49;6.53;;;4.83;;
18090;SDS011;9172;49.948;9.208;2022-08-19T09:51:19;7.83;;;5.03;;
18090;SDS011;9172;49.948;9.208;2022-08-19T09:53:49;9.23;;;5.53;;
18090;SDS011;9172;49.948;9.208;2022-08-19T09:56:20;17.33;;;6.20;;
18090;SDS011;9172;49.948;9.208;2022-08-19T09:58:49;9.43;;;5.57;;
18090;SDS011;9172;49.948;9.208;2022-08-19T10:01:19;7.80;;;4.37;;
18090;SDS011;9172;49.948;9.208;2022-08-19T10:03:50;6.50;;;3.90;;
18090;SDS011;9172;49.948;9.208;2022-08-19T10:06:21;6.30;;;4.07;;
18090;SDS011;9172;49.948;9.208;2022-08-19T10:08:52;5.63;;;3.47;;
18090;SDS011;9172;49.948;9.208;2022-08-19T10:11:20;9.33;;;4.30;;
18090;SDS011;9172;49.948;9.208;2022-08-19T10:13:49;8.20;;;3.70;;
18090;SDS011;9172;49.948;9.208;2022-08-19T10:16:19;9.40;;;2.90;;
18090;SDS011;9172;49.948;9.208;2022-08-19T10:18:50;4.67;;;3.03;;
18090;SDS011;9172;49.948;9.208;2022-08-19T10:21:21;5.07;;;2.90;;
18090;SDS011;9172;49.948;9.208;2022-08-19T10:23:51;4.77;;;3.10;;
18090;SDS011;9172;49.948;9.208;2022-08-19T10:26:22;4.73;;;2.90;;
18090;SDS011;9172;49.948;9.208;2022-08-19T10:28:52;3.07;;;2.10;;
18090;SDS011;9172;49.948;9.208;2022-08-19T10:31:21;5.43;;;2.77;;
18090;SDS011;9172;49.948;9.208;2022-08-19T10:33:52;6.33;;;2.33;;
18090;SDS011;9172;49.948;9.208;2022-08-19T10:36:23;5.77;;;2.80;;
18090;SDS011;9172;49.948;9.208;2022-08-19T10:38:56;6.00;;;2.93;;
18090;SDS011;9172;49.948;9.208;2022-08-19T10:41:28;5.27;;;2.80;;
18090;SDS011;9172;49.948;9.208;2022-08-19T10:44:00;4.90;;;2.77;;
18090;SDS011;9172;49.948;9.208;2022-08-19T10:46:32;4.20;;;2.63;;
18090;SDS011;9172;49.948;9.208;2022-08-19T10:49:03;3.47;;;2.57;;
18090;SDS011;9172;49.948;9.208;2022-08-19T10:51:33;3.40;;;2.50;;
18090;SDS011;9172;49.948;9.208;2022-08-19T10:54:19;3.87;;;2.30;;
18090;SDS011;9172;49.948;9.208;2022-08-19T10:56:49;6.90;;;2.70;;
18090;SDS011;9172;49.948;9.208;2022-08-19T10:59:18;3.40;;;2.50;;
18090;SDS011;9172;49.948;9.208;2022-08-19T11:01:49;4.10;;;2.73;;
18090;SDS011;9172;49.948;9.208;2022-08-19T11:04:19;3.80;;;2.70;;
18090;SDS011;9172;49.948;9.208;2022-08-19T11:06:48;4.95;;;2.52;;
18090;SDS011;9172;49.948;9.208;2022-08-19T11:09:19;5.10;;;2.30;;
18090;SDS011;9172;49.948;9.208;2022-08-19T11:11:51;4.23;;;2.53;;
18090;SDS011;9172;49.948;9.208;2022-08-19T11:14:22;5.33;;;2.60;;
18090;SDS011;9172;49.948;9.208;2022-08-19T11:16:53;4.40;;;2.27;;
18090;SDS011;9172;49.948;9.208;2022-08-19T11:19:24;2.80;;;1.95;;
18090;SDS011;9172;49.948;9.208;2022-08-19T11:21:54;3.27;;;2.42;;
18090;SDS011;9172;49.948;9.208;2022-08-19T11:24:24;3.10;;;2.10;;
18090;SDS011;9172;49.948;9.208;2022-08-19T11:26:54;3.65;;;2.58;;
18090;SDS011;9172;49.948;9.208;2022-08-19T11:29:26;2.58;;;2.08;;
18090;SDS011;9172;49.948;9.208;2022-08-19T11:31:55;5.10;;;3.22;;
18090;SDS011;9172;49.948;9.208;2022-08-19T11:34:25;4.53;;;2.43;;
18090;SDS011;9172;49.948;9.208;2022-08-19T11:36:55;5.75;;;2.12;;
18090;SDS011;9172;49.948;9.208;2022-08-19T11:39:26;4.03;;;2.42;;
18090;SDS011;9172;49.948;9.208;2022-08-19T11:41:58;4.45;;;2.52;;
18090;SDS011;9172;49.948;9.208;2022-08-19T11:44:28;2.72;;;2.22;;
18090;SDS011;9172;49.948;9.208;2022-08-19T11:46:59;3.50;;;2.05;;
18090;SDS011;9172;49.948;9.208;2022-08-19T11:49:28;4.10;;;2.22;;
18090;SDS011;9172;49.948;9.208;2022-08-19T11:51:57;4.97;;;2.58;;
18090;SDS011;9172;49.948;9.208;2022-08-19T11:54:26;2.77;;;2.22;;
18090;SDS011;9172;49.948;9.208;2022-08-19T11:56:55;3.47;;;2.30;;
18090;SDS011;9172;49.948;9.208;2022-08-19T11:59:24;4.70;;;2.75;;
18090;SDS011;9172;49.948;9.208;2022-08-19T12:01:53;4.35;;;3.10;;
18090;SDS011;9172;49.948;9.208;2022-08-19T12:04:23;4.10;;;2.50;;
18090;SDS011;9172;49.948;9.208;2022-08-19T12:06:53;4.47;;;2.83;;
18090;SDS011;9172;49.948;9.208;2022-08-19T12:09:22;4.30;;;3.00;;
18090;SDS011;9172;49.948;9.208;2022-08-19T12:11:52;4.55;;;2.60;;
18090;SDS011;9172;49.948;9.208;2022-08-19T12:14:21;4.37;;;2.35;;
18090;SDS011;9172;49.948;9.208;2022-08-19T12:16:51;3.30;;;2.30;;
18090;SDS011;9172;49.948;9.208;2022-08-19T12:19:21;3.37;;;2.30;;
18090;SDS011;9172;49.948;9.208;2022-08-19T12:21:52;3.37;;;2.20;;
18090;SDS011;9172;49.948;9.208;2022-08-19T12:24:24;3.22;;;2.30;;
18090;SDS011;9172;49.948;9.208;2022-08-19T12:26:56;3.27;;;2.45;;
18090;SDS011;9172;49.948;9.208;2022-08-19T12:29:27;8.80;;;2.98;;
18090;SDS011;9172;49.948;9.208;2022-08-19T12:31:57;3.33;;;2.27;;
18090;SDS011;9172;49.948;9.208;2022-08-19T12:34:30;3.47;;;2.50;;
18090;SDS011;9172;49.948;9.208;2022-08-19T12:37:01;3.60;;;2.37;;
18090;SDS011;9172;49.948;9.208;2022-08-19T12:39:33;4.30;;;2.60;;
18090;SDS011;9172;49.948;9.208;2022-08-19T12:42:03;3.52;;;2.37;;
18090;SDS011;9172;49.948;9.208;2022-08-19T12:44:35;5.12;;;2.67;;
18090;SDS011;9172;49.948;9.208;2022-08-19T12:47:05;6.72;;;2.75;;
18090;SDS011;9172;49.948;9.208;2022-08-19T12:49:35;2.80;;;2.50;;
18090;SDS011;9172;49.948;9.208;2022-08-19T12:52:06;3.15;;;2.35;;
18090;SDS011;9172;49.948;9.208;2022-08-19T12:54:35;3.75;;;2.72;;
18090;SDS011;9172;49.948;9.208;2022-08-19T12:57:05;3.15;;;2.33;;
18090;SDS011;9172;49.948;9.208;2022-08-19T12:59:34;6.22;;;2.40;;
18090;SDS011;9172;49.948;9.208;2022-08-19T13:02:04;4.20;;;2.52;;
18090;SDS011;9172;49.948;9.208;2022-08-19T13:04:34;3.55;;;2.47;;
18090;SDS011;9172;49.948;9.208;2022-08-19T13:07:04;2.77;;;2.50;;
18090;SDS011;9172;49.948;9.208;2022-08-19T13:09:35;4.00;;;2.45;;
18090;SDS011;9172;49.948;9.208;2022-08-19T13:12:07;3.40;;;2.47;;
18090;SDS011;9172;49.948;9.208;2022-08-19T13:14:37;3.37;;;2.30;;
18090;SDS011;9172;49.948;9.208;2022-08-19T13:17:07;3.77;;;2.35;;
18090;SDS011;9172;49.948;9.208;2022-08-19T13:19:37;4.28;;;2.67;;
18090;SDS011;9172;49.948;9.208;2022-08-19T13:22:07;2.58;;;2.22;;
18090;SDS011;9172;49.948;9.208;2022-08-19T13:24:38;4.50;;;2.52;;
18090;SDS011;9172;49.948;9.208;2022-08-19T13:27:08;6.90;;;2.37;;
18090;SDS011;9172;49.948;9.208;2022-08-19T13:29:37;3.27;;;2.45;;
18090;SDS011;9172;49.948;9.208;2022-08-19T13:32:25;5.05;;;2.37;;
18090;SDS011;9172;49.948;9.208;2022-08-19T13:35:13;6.10;;;2.60;;
18090;SDS011;9172;49.948;9.208;2022-08-19T13:37:44;3.85;;;2.50;;
18090;SDS011;9172;49.948;9.208;2022-08-19T13:40:16;2.58;;;2.10;;
18090;SDS011;9172;49.948;9.208;2022-08-19T13:42:49;2.65;;;2.20;;
18090;SDS011;9172;49.948;9.208;2022-08-19T13:45:20;4.33;;;2.30;;
18090;SDS011;9172;49.948;9.208;2022-08-19T13:47:52;3.47;;;2.40;;
18090;SDS011;9172;49.948;9.208;2022-08-19T13:50:23;2.70;;;2.33;;
18090;SDS011;9172;49.948;9.208;2022-08-19T13:52:53;3.87;;;2.45;;
18090;SDS011;9172;49.948;9.208;2022-08-19T13:55:23;3.20;;;2.00;;
18090;SDS011;9172;49.948;9.208;2022-08-19T13:57:53;3.45;;;2.17;;
18090;SDS011;9172;49.948;9.208;2022-08-19T14:00:24;4.40;;;2.05;;
18090;SDS011;9172;49.948;9.208;2022-08-19T14:02:55;3.75;;;2.40;;
18090;SDS011;9172;49.948;9.208;2022-08-19T14:05:27;3.62;;;2.27;;
18090;SDS011;9172;49.948;9.208;2022-08-19T14:07:58;3.95;;;2.22;;
18090;SDS011;9172;49.948;9.208;2022-08-19T14:10:27;5.72;;;2.08;;
18090;SDS011;9172;49.948;9.208;2022-08-19T14:12:58;3.55;;;2.35;;
18090;SDS011;9172;49.948;9.208;2022-08-19T14:15:28;4.70;;;2.20;;
18090;SDS011;9172;49.948;9.208;2022-08-19T14:17:58;3.08;;;2.30;;
18090;SDS011;9172;49.948;9.208;2022-08-19T14:20:28;4.92;;;2.65;;
18090;SDS011;9172;49.948;9.208;2022-08-19T14:22:57;4.47;;;2.70;;
18090;SDS011;9172;49.948;9.208;2022-08-19T14:25:27;2.92;;;2.10;;
18090;SDS011;9172;49.948;9.208;2022-08-19T14:27:57;4.20;;;2.45;;
18090;SDS011;9172;49.948;9.208;2022-08-19T14:30:30;3.55;;;2.10;;
18090;SDS011;9172;49.948;9.208;2022-08-19T14:33:00;4.60;;;2.20;;
18090;SDS011;9172;49.948;9.208;2022-08-19T14:35:30;3.08;;;2.20;;
18090;SDS011;9172;49.948;9.208;2022-08-19T14:38:00;2.85;;;2.25;;
18090;SDS011;9172;49.948;9.208;2022-08-19T14:40:31;4.33;;;2.50;;
18090;SDS011;9172;49.948;9.208;2022-08-19T14:43:01;3.27;;;2.30;;
18090;SDS011;9172;49.948;9.208;2022-08-19T14:50:50;3.50;;;2.47;;
18090;SDS011;9172;49.948;9.208;2022-08-19T14:53:20;3.37;;;2.30;;
18090;SDS011;9172;49.948;9.208;2022-08-19T14:55:48;3.37;;;2.27;;
18090;SDS011;9172;49.948;9.208;2022-08-19T14:58:18;3.45;;;2.77;;
18090;SDS011;9172;49.948;9.208;2022-08-19T15:00:46;3.30;;;2.92;;
18090;SDS011;9172;49.948;9.208;2022-08-19T15:03:16;7.47;;;3.33;;
18090;SDS011;9172;49.948;9.208;2022-08-19T15:05:45;8.20;;;3.10;;
18090;SDS011;9172;49.948;9.208;2022-08-19T15:08:13;4.58;;;3.50;;
18090;SDS011;9172;49.948;9.208;2022-08-19T15:10:42;4.55;;;3.02;;